createdAt,value
2023-02-11T00:00:31.359Z,-3.00
2023-02-11T00:03:23.534Z,-3.02
2023-02-11T00:06:04.901Z,-3.06
2023-02-11T00:08:37.170Z,-3.11
2023-02-11T00:11:13.524Z,-3.17
2023-02-11T00:13:46.546Z,-3.24
2023-02-11T00:16:21.244Z,-3.29
2023-02-11T00:18:54.305Z,-3.31
2023-02-11T00:21:27.981Z,-3.34
2023-02-11T00:24:02.450Z,-3.33
2023-02-11T00:26:36.774Z,-3.29
2023-02-11T00:29:09.065Z,-3.24
2023-02-11T00:31:41.590Z,-3.24
2023-02-11T00:34:13.963Z,-3.25
2023-02-11T00:36:46.162Z,-3.25
2023-02-11T00:39:18.474Z,-3.20
2023-02-11T00:41:51.008Z,-3.15
2023-02-11T00:44:23.372Z,-3.15
2023-02-11T00:46:55.619Z,-3.25
2023-02-11T00:49:27.861Z,-3.26
2023-02-11T00:52:00.183Z,-3.33
2023-02-11T00:54:32.552Z,-3.41
2023-02-11T00:57:04.880Z,-3.53
2023-02-11T00:59:37.364Z,-3.57
2023-02-11T01:02:09.951Z,-3.57
2023-02-11T01:04:42.329Z,-3.60
2023-02-11T01:07:14.517Z,-3.63
2023-02-11T01:09:46.823Z,-3.63
2023-02-11T01:12:19.408Z,-3.67
2023-02-11T01:14:51.771Z,-3.71
2023-02-11T01:17:24.175Z,-3.68
2023-02-11T01:19:56.619Z,-3.70
2023-02-11T01:22:28.977Z,-3.72
2023-02-11T01:25:01.649Z,-3.67
2023-02-11T01:27:34.058Z,-3.60
2023-02-11T01:30:09.990Z,-3.62
2023-02-11T01:32:41.011Z,-3.65
2023-02-11T01:35:13.368Z,-3.61
2023-02-11T01:37:45.603Z,-3.58
2023-02-11T01:40:19.331Z,-3.57
2023-02-11T01:42:51.586Z,-3.56
2023-02-11T01:46:14.729Z,-3.56
2023-02-11T01:48:50.471Z,-3.51
2023-02-11T01:51:26.535Z,-3.46
2023-02-11T01:54:32.953Z,-3.41
2023-02-11T01:57:26.022Z,-3.47
2023-02-11T02:00:15.735Z,-3.50
2023-02-11T02:02:54.323Z,-3.47
2023-02-11T02:05:33.827Z,-3.46
2023-02-11T02:08:12.902Z,-3.44
2023-02-11T02:10:47.927Z,-3.46
2023-02-11T02:13:20.190Z,-3.49
2023-02-11T02:15:54.609Z,-3.52
2023-02-11T02:18:45.902Z,-3.54
2023-02-11T02:21:42.409Z,-3.57
2023-02-11T02:24:40.999Z,-3.61
2023-02-11T02:27:31.192Z,-3.72
2023-02-11T02:30:26.820Z,-3.80
2023-02-11T02:33:28.753Z,-3.81
2023-02-11T02:36:10.968Z,-3.83
2023-02-11T02:38:49.907Z,-3.81
2023-02-11T02:41:25.133Z,-3.80
2023-02-11T02:43:57.516Z,-3.79
2023-02-11T02:46:32.891Z,-3.79
2023-02-11T02:49:07.876Z,-3.73
2023-02-11T02:52:18.784Z,-3.72
2023-02-11T02:55:08.860Z,-3.72
2023-02-11T02:58:01.968Z,-3.75
2023-02-11T03:00:40.212Z,-3.77
2023-02-11T03:03:27.355Z,-3.89
2023-02-11T03:06:05.155Z,-4.09
2023-02-11T03:08:42.431Z,-4.14
2023-02-11T03:11:17.720Z,-4.15
2023-02-11T03:13:52.410Z,-4.13
2023-02-11T03:16:29.754Z,-4.19
2023-02-11T03:19:07.802Z,-4.17
2023-02-11T03:21:43.859Z,-4.24
2023-02-11T03:24:17.572Z,-4.36
2023-02-11T03:26:54.004Z,-4.35
2023-02-11T03:29:36.953Z,-4.30
2023-02-11T03:32:18.838Z,-4.22
2023-02-11T03:34:57.457Z,-4.14
2023-02-11T03:37:34.300Z,-4.06
2023-02-11T03:40:11.759Z,-3.98
2023-02-11T03:42:49.437Z,-3.91
2023-02-11T03:45:24.939Z,-3.94
2023-02-11T03:48:01.136Z,-4.05
2023-02-11T03:50:35.173Z,-4.02
2023-02-11T03:53:09.210Z,-3.94
2023-02-11T03:55:44.354Z,-3.85
2023-02-11T03:58:16.761Z,-3.78
2023-02-11T04:00:49.522Z,-3.72
2023-02-11T04:03:21.897Z,-3.70
2023-02-11T04:05:54.315Z,-3.77
2023-02-11T04:08:26.665Z,-3.88
2023-02-11T04:10:58.978Z,-3.99
2023-02-11T04:13:31.629Z,-4.21
2023-02-11T04:16:04.102Z,-4.39
2023-02-11T04:18:36.410Z,-4.40
2023-02-11T04:21:09.453Z,-4.39
2023-02-11T04:23:41.665Z,-4.41
2023-02-11T04:26:13.980Z,-4.53
2023-02-11T04:28:46.234Z,-4.67
2023-02-11T04:31:18.648Z,-4.72
2023-02-11T04:33:51.304Z,-4.70
2023-02-11T04:36:23.638Z,-4.63
2023-02-11T04:38:56.007Z,-4.60
2023-02-11T04:41:28.328Z,-4.56
2023-02-11T04:44:00.749Z,-4.54
2023-02-11T04:46:33.317Z,-4.46
2023-02-11T04:49:06.016Z,-4.39
2023-02-11T04:51:38.259Z,-4.42
2023-02-11T04:54:10.742Z,-4.43
2023-02-11T04:56:43.115Z,-4.42
2023-02-11T04:59:15.834Z,-4.39
2023-02-11T05:01:48.131Z,-4.40
2023-02-11T05:04:20.694Z,-4.43
2023-02-11T05:06:53.103Z,-4.34
2023-02-11T05:09:25.474Z,-4.25
2023-02-11T05:11:57.849Z,-4.14
2023-02-11T05:14:30.298Z,-4.07
2023-02-11T05:17:02.708Z,-4.10
2023-02-11T05:19:35.356Z,-4.17
2023-02-11T05:22:07.910Z,-4.16
2023-02-11T05:24:40.254Z,-4.14
2023-02-11T05:27:12.792Z,-4.16
2023-02-11T05:29:45.250Z,-4.15
2023-02-11T05:32:17.662Z,-4.13
2023-02-11T05:34:50.101Z,-4.12
2023-02-11T05:37:22.348Z,-4.16
2023-02-11T05:39:54.699Z,-4.28
2023-02-11T05:42:26.940Z,-4.45
2023-02-11T05:44:59.244Z,-4.51
2023-02-11T05:47:31.878Z,-4.48
2023-02-11T05:50:04.314Z,-4.43
2023-02-11T05:52:36.753Z,-4.39
2023-02-11T05:55:09.944Z,-4.32
2023-02-11T05:57:42.373Z,-4.20
2023-02-11T06:00:17.438Z,-4.09
2023-02-11T06:02:49.839Z,-3.98
2023-02-11T06:05:22.605Z,-3.83
2023-02-11T06:07:55.035Z,-3.67
2023-02-11T06:10:27.389Z,-3.54
2023-02-11T06:12:59.709Z,-3.47
2023-02-11T06:15:31.982Z,-3.40
2023-02-11T06:18:04.260Z,-3.25
2023-02-11T06:20:36.502Z,-3.10
2023-02-11T06:23:08.856Z,-2.88
2023-02-11T06:25:41.509Z,-2.71
2023-02-11T06:28:14.069Z,-2.54
2023-02-11T06:30:46.549Z,-2.41
2023-02-11T06:33:18.957Z,-2.45
2023-02-11T06:35:51.502Z,-2.41
2023-02-11T06:38:24.085Z,-2.19
2023-02-11T06:40:56.473Z,-1.98
2023-02-11T06:43:28.918Z,-1.77
2023-02-11T06:46:01.254Z,-1.55
2023-02-11T06:48:33.590Z,-1.27
2023-02-11T06:51:09.984Z,-0.99
2023-02-11T06:53:44.674Z,-0.68
2023-02-11T06:56:19.562Z,-0.63
2023-02-11T06:58:56.122Z,-0.63
2023-02-11T07:01:29.586Z,-0.71
2023-02-11T07:04:02.003Z,-0.80
2023-02-11T07:06:34.423Z,-0.86
2023-02-11T07:09:07.055Z,-0.88
2023-02-11T07:11:40.602Z,-0.88
2023-02-11T07:14:14.147Z,-0.87
2023-02-11T07:16:46.554Z,-0.79
2023-02-11T07:19:18.990Z,-0.62
2023-02-11T07:21:51.324Z,-0.46
2023-02-11T07:24:25.156Z,-0.45
2023-02-11T07:26:57.606Z,-0.63
2023-02-11T07:29:30.052Z,-0.82
2023-02-11T07:32:02.424Z,-0.97
2023-02-11T07:34:35.247Z,-1.06
2023-02-11T07:37:07.604Z,-1.14
2023-02-11T07:39:39.885Z,-1.25
2023-02-11T07:42:12.252Z,-1.23
2023-02-11T07:44:44.686Z,-1.33
2023-02-11T07:47:16.928Z,-1.24
2023-02-11T07:49:49.769Z,-1.06
2023-02-11T07:52:22.373Z,-0.78
2023-02-11T07:54:54.706Z,-0.47
2023-02-11T07:57:27.112Z,-0.22
2023-02-11T07:59:59.384Z,-0.16
2023-02-11T08:02:31.826Z,-0.01
2023-02-11T08:05:04.232Z,0.21
2023-02-11T08:07:37.061Z,0.45
2023-02-11T08:10:10.058Z,0.70
2023-02-11T08:12:42.339Z,0.93
2023-02-11T08:15:14.670Z,1.13
2023-02-11T08:17:47.073Z,1.29
2023-02-11T08:20:19.800Z,1.41
2023-02-11T08:22:52.101Z,1.53
2023-02-11T08:25:24.561Z,1.53
2023-02-11T08:27:56.928Z,1.56
2023-02-11T08:30:30.581Z,1.76
2023-02-11T08:33:03.035Z,2.05
2023-02-11T08:35:39.947Z,2.29
2023-02-11T08:38:12.224Z,2.38
2023-02-11T08:40:44.562Z,2.57
2023-02-11T08:43:17.146Z,2.65
2023-02-11T08:45:49.739Z,2.93
2023-02-11T08:48:22.298Z,3.19
2023-02-11T08:50:54.579Z,3.30
2023-02-11T08:53:26.993Z,3.43
2023-02-11T08:55:59.233Z,3.35
2023-02-11T08:58:31.720Z,3.34
2023-02-11T09:01:10.025Z,3.43
2023-02-11T09:03:42.634Z,3.65
2023-02-11T09:06:17.765Z,3.84
2023-02-11T09:08:53.388Z,3.97
2023-02-11T09:11:29.914Z,4.13
2023-02-11T09:14:03.070Z,4.32
2023-02-11T09:16:37.475Z,4.41
2023-02-11T09:19:11.015Z,4.62
2023-02-11T09:21:43.462Z,4.78
2023-02-11T09:24:16.029Z,4.77
2023-02-11T09:26:49.787Z,4.89
2023-02-11T09:29:22.212Z,4.86
2023-02-11T09:31:54.735Z,4.53
2023-02-11T09:34:27.183Z,4.44
2023-02-11T09:36:59.701Z,4.27
2023-02-11T09:39:32.285Z,4.33
2023-02-11T09:42:35.815Z,4.63
2023-02-11T09:45:15.993Z,4.87
2023-02-11T09:47:55.773Z,4.79
2023-02-11T09:50:33.967Z,4.78
2023-02-11T09:53:12.314Z,4.91
2023-02-11T09:55:47.861Z,4.92
2023-02-11T09:58:30.194Z,5.04
2023-02-11T10:01:09.897Z,5.11
2023-02-11T10:04:05.140Z,4.96
2023-02-11T10:06:44.441Z,5.09
2023-02-11T10:09:38.428Z,5.36
2023-02-11T10:12:29.337Z,5.58
2023-02-11T10:15:14.826Z,5.69
2023-02-11T10:18:01.041Z,5.85
2023-02-11T10:20:38.826Z,5.84
2023-02-11T10:23:17.945Z,5.77
2023-02-11T10:25:54.807Z,5.72
2023-02-11T10:28:34.028Z,5.71
2023-02-11T10:31:11.621Z,5.71
2023-02-11T10:33:48.417Z,5.80
2023-02-11T10:36:24.026Z,5.70
2023-02-11T10:38:56.447Z,5.58
2023-02-11T10:41:34.017Z,5.73
2023-02-11T10:44:09.200Z,5.75
2023-02-11T10:46:41.672Z,5.56
2023-02-11T10:49:39.495Z,5.52
2023-02-11T10:52:23.854Z,5.37
2023-02-11T10:55:05.916Z,5.40
2023-02-11T10:57:42.869Z,5.44
2023-02-11T11:00:32.552Z,5.41
2023-02-11T11:03:06.760Z,5.40
2023-02-11T11:05:48.424Z,5.39
2023-02-11T11:08:21.575Z,5.36
2023-02-11T11:11:06.104Z,5.26
2023-02-11T11:13:40.347Z,5.28
2023-02-11T11:16:24.722Z,5.22
2023-02-11T11:19:21.752Z,5.22
2023-02-11T11:21:56.385Z,5.35
2023-02-11T11:24:34.487Z,5.38
2023-02-11T11:27:07.541Z,5.45
2023-02-11T11:29:45.241Z,5.45
2023-02-11T11:32:22.330Z,5.42
2023-02-11T11:34:56.922Z,5.24
2023-02-11T11:37:31.872Z,4.95
2023-02-11T11:40:10.066Z,4.88
2023-02-11T11:42:43.141Z,4.93
2023-02-11T11:45:28.071Z,4.90
2023-02-11T11:48:04.608Z,4.82
2023-02-11T11:50:41.579Z,4.69
2023-02-11T11:53:22.013Z,4.63
2023-02-11T11:56:02.229Z,4.60
2023-02-11T11:58:35.351Z,4.54
2023-02-11T12:01:24.418Z,4.39
2023-02-11T12:04:36.853Z,4.22
2023-02-11T12:07:25.963Z,4.19
2023-02-11T12:10:29.442Z,4.10
2023-02-11T12:13:10.882Z,3.87
2023-02-11T12:15:52.505Z,3.68
2023-02-11T12:19:10.502Z,3.66
2023-02-11T12:21:50.899Z,3.72
2023-02-11T12:24:37.613Z,3.73
2023-02-11T12:27:16.144Z,3.73
2023-02-11T12:30:01.011Z,3.74
2023-02-11T12:32:40.433Z,3.75
2023-02-11T12:35:32.802Z,3.85
2023-02-11T12:38:30.327Z,3.88
2023-02-11T12:41:41.114Z,3.88
2023-02-11T12:44:24.816Z,3.88
2023-02-11T12:47:09.796Z,3.87
2023-02-11T12:50:09.192Z,3.74
2023-02-11T12:52:59.794Z,3.64
2023-02-11T12:55:37.852Z,3.59
2023-02-11T12:58:19.651Z,3.56
2023-02-11T13:00:56.827Z,3.53
2023-02-11T13:03:36.506Z,3.50
2023-02-11T13:06:13.459Z,3.51
2023-02-11T13:08:48.729Z,3.49
2023-02-11T13:11:25.416Z,3.49
2023-02-11T13:14:03.420Z,3.46
2023-02-11T13:16:41.691Z,3.45
2023-02-11T13:19:26.782Z,3.41
2023-02-11T13:22:15.014Z,3.39
2023-02-11T13:24:54.416Z,3.38
2023-02-11T13:27:38.267Z,3.27
2023-02-11T13:30:29.765Z,3.26
2023-02-11T13:33:34.212Z,3.22
2023-02-11T13:36:24.469Z,3.19
2023-02-11T13:39:08.259Z,3.18
2023-02-11T13:41:44.285Z,3.23
2023-02-11T13:44:26.349Z,3.22
2023-02-11T13:47:03.382Z,3.17
2023-02-11T13:49:42.467Z,3.14
2023-02-11T13:52:26.953Z,3.08
2023-02-11T13:55:06.121Z,3.07
2023-02-11T13:57:41.049Z,3.11
2023-02-11T14:00:50.777Z,3.13
2023-02-11T14:03:52.467Z,3.08
2023-02-11T14:06:47.580Z,2.98
2023-02-11T14:09:42.491Z,2.96
2023-02-11T14:12:31.434Z,2.98
2023-02-11T14:15:22.653Z,2.99
2023-02-11T14:17:55.022Z,2.98
2023-02-11T14:20:47.249Z,2.98
2023-02-11T14:23:28.654Z,3.00
2023-02-11T14:26:19.914Z,2.97
2023-02-11T14:28:59.367Z,2.95
2023-02-11T14:31:41.484Z,2.94
2023-02-11T14:34:34.640Z,2.94
2023-02-11T14:37:19.490Z,2.96
2023-02-11T14:40:04.234Z,2.97
2023-02-11T14:42:39.306Z,2.95
2023-02-11T14:45:19.850Z,2.91
2023-02-11T14:47:58.323Z,2.93
2023-02-11T14:50:34.927Z,2.91
2023-02-11T14:53:09.243Z,2.89
2023-02-11T14:55:46.119Z,2.86
2023-02-11T14:58:21.099Z,2.84
2023-02-11T15:00:58.887Z,2.80
2023-02-11T15:03:37.080Z,2.77
2023-02-11T15:06:18.483Z,2.73
2023-02-11T15:08:54.610Z,2.65
2023-02-11T15:11:26.604Z,2.67
2023-02-11T15:14:02.521Z,2.64
2023-02-11T15:16:34.377Z,2.61
2023-02-11T15:19:08.793Z,2.59
2023-02-11T15:21:41.248Z,2.54
2023-02-11T15:24:27.356Z,2.50
2023-02-11T15:27:01.795Z,2.49
2023-02-11T15:29:40.881Z,2.48
2023-02-11T15:32:19.389Z,2.45
2023-02-11T15:34:54.161Z,2.44
2023-02-11T15:37:29.868Z,2.43
2023-02-11T15:40:19.029Z,2.39
2023-02-11T15:42:59.298Z,2.36
2023-02-11T15:45:35.153Z,2.32
2023-02-11T15:48:14.958Z,2.26
2023-02-11T15:50:54.214Z,2.22
2023-02-11T15:53:32.695Z,2.18
2023-02-11T15:56:12.253Z,2.14
2023-02-11T15:58:48.954Z,2.11
2023-02-11T16:01:31.778Z,2.08
2023-02-11T16:04:07.338Z,2.01
2023-02-11T16:06:41.857Z,1.99
2023-02-11T16:09:32.854Z,1.99
2023-02-11T16:12:20.041Z,2.00
2023-02-11T16:14:52.580Z,2.00
2023-02-11T16:17:28.886Z,1.98
2023-02-11T16:19:59.541Z,1.97
2023-02-11T16:22:38.222Z,1.92
2023-02-11T16:25:20.344Z,1.88
2023-02-11T16:27:54.926Z,1.85
2023-02-11T16:30:33.973Z,1.82
2023-02-11T16:33:06.869Z,1.78
2023-02-11T16:35:39.326Z,1.73
2023-02-11T16:38:11.744Z,1.72
2023-02-11T16:40:46.260Z,1.70
2023-02-11T16:43:21.322Z,1.68
2023-02-11T16:45:53.819Z,1.68
2023-02-11T16:48:26.590Z,1.67
2023-02-11T16:50:59.202Z,1.66
2023-02-11T16:53:31.728Z,1.62
2023-02-11T16:56:04.431Z,1.59
2023-02-11T16:58:36.671Z,1.57
2023-02-11T17:01:11.033Z,1.54
2023-02-11T17:03:45.734Z,1.50
2023-02-11T17:06:18.131Z,1.45
2023-02-11T17:08:50.345Z,1.39
2023-02-11T17:11:22.810Z,1.35
2023-02-11T17:13:55.203Z,1.29
2023-02-11T17:16:29.985Z,1.26
2023-02-11T17:19:02.542Z,1.23
2023-02-11T17:21:34.889Z,1.22
2023-02-11T17:24:07.823Z,1.16
2023-02-11T17:26:40.475Z,1.15
2023-02-11T17:29:15.773Z,1.12
2023-02-11T17:31:48.113Z,1.08
2023-02-11T17:34:21.049Z,1.04
2023-02-11T17:36:53.442Z,1.01
2023-02-11T17:39:26.080Z,0.99
2023-02-11T17:41:58.538Z,0.95
2023-02-11T17:44:30.838Z,0.92
2023-02-11T17:47:03.301Z,0.91
2023-02-11T17:49:35.675Z,0.92
2023-02-11T17:52:08.244Z,0.94
2023-02-11T17:54:40.865Z,0.94
2023-02-11T17:57:13.455Z,0.88
2023-02-11T17:59:45.972Z,0.90
2023-02-11T18:02:18.400Z,0.89
2023-02-11T18:04:52.469Z,0.86
2023-02-11T18:07:24.730Z,0.85
2023-02-11T18:09:57.081Z,0.81
2023-02-11T18:12:29.495Z,0.77
2023-02-11T18:15:01.860Z,0.73
2023-02-11T18:17:34.213Z,0.65
2023-02-11T18:20:08.116Z,0.61
2023-02-11T18:22:41.202Z,0.61
2023-02-11T18:25:15.188Z,0.61
2023-02-11T18:27:47.834Z,0.59
2023-02-11T18:30:22.425Z,0.59
2023-02-11T18:32:57.603Z,0.60
2023-02-11T18:35:29.967Z,0.60
2023-02-11T18:38:02.455Z,0.59
2023-02-11T18:40:35.617Z,0.53
2023-02-11T18:43:07.952Z,0.42
2023-02-11T18:45:43.492Z,0.47
2023-02-11T18:48:16.962Z,0.47
2023-02-11T18:50:49.564Z,0.46
2023-02-11T18:53:22.349Z,0.46
2023-02-11T18:55:55.516Z,0.50
2023-02-11T18:58:28.139Z,0.54
2023-02-11T19:01:00.425Z,0.56
2023-02-11T19:03:32.759Z,0.57
2023-02-11T19:06:09.472Z,0.59
2023-02-11T19:08:41.740Z,0.62
2023-02-11T19:11:17.980Z,0.65
2023-02-11T19:13:51.491Z,0.67
2023-02-11T19:16:24.079Z,0.71
2023-02-11T19:18:58.079Z,0.74
2023-02-11T19:21:30.847Z,0.72
2023-02-11T19:24:07.674Z,0.73
2023-02-11T19:26:43.183Z,0.73
2023-02-11T19:29:15.880Z,0.72
2023-02-11T19:31:48.315Z,0.69
2023-02-11T19:34:22.478Z,0.67
2023-02-11T19:36:55.412Z,0.64
2023-02-11T19:39:27.840Z,0.59
2023-02-11T19:42:00.094Z,0.53
2023-02-11T19:44:32.372Z,0.49
2023-02-11T19:47:04.628Z,0.43
2023-02-11T19:49:37.034Z,0.45
2023-02-11T19:52:09.759Z,0.43
2023-02-11T19:54:42.069Z,0.40
2023-02-11T19:57:14.371Z,0.38
2023-02-11T19:59:46.704Z,0.32
2023-02-11T20:02:19.026Z,0.32
2023-02-11T20:04:51.624Z,0.33
2023-02-11T20:07:23.958Z,0.32
2023-02-11T20:09:56.193Z,0.26
2023-02-11T20:12:28.421Z,0.20
2023-02-11T20:15:00.779Z,0.13
2023-02-11T20:17:33.250Z,0.14
2023-02-11T20:20:05.778Z,0.15
2023-02-11T20:22:38.471Z,0.18
2023-02-11T20:25:14.153Z,0.16
2023-02-11T20:27:46.667Z,0.11
2023-02-11T20:30:19.581Z,0.09
2023-02-11T20:32:51.942Z,0.03
2023-02-11T20:35:24.219Z,-0.02
2023-02-11T20:37:56.655Z,-0.06
2023-02-11T20:40:28.839Z,-0.01
2023-02-11T20:43:01.249Z,-0.01
2023-02-11T20:45:36.228Z,-0.02
2023-02-11T20:48:08.831Z,-0.02
2023-02-11T20:50:41.593Z,-0.01
2023-02-11T20:53:14.046Z,0.02
2023-02-11T20:55:46.350Z,0.06
2023-02-11T20:58:18.625Z,0.09
2023-02-11T21:00:50.854Z,0.11
2023-02-11T21:03:23.390Z,0.14
2023-02-11T21:06:00.853Z,0.14
2023-02-11T21:08:33.467Z,0.13
2023-02-11T21:11:09.490Z,0.11
2023-02-11T21:13:43.297Z,0.09
2023-02-11T21:16:18.410Z,0.07
2023-02-11T21:18:51.533Z,0.04
2023-02-11T21:21:24.387Z,0.04
2023-02-11T21:23:56.948Z,0.03
2023-02-11T21:26:29.510Z,-0.02
2023-02-11T21:29:01.830Z,-0.03
2023-02-11T21:31:36.698Z,0.01
2023-02-11T21:34:09.549Z,0.03
2023-02-11T21:36:41.904Z,0.06
2023-02-11T21:39:15.371Z,0.06
2023-02-11T21:41:47.761Z,0.04
2023-02-11T21:44:20.433Z,0.04
2023-02-11T21:46:52.839Z,0.07
2023-02-11T21:49:25.167Z,0.05
2023-02-11T21:51:57.493Z,0.04
2023-02-11T21:54:32.127Z,0.04
2023-02-11T21:57:04.420Z,0.08
2023-02-11T21:59:36.907Z,0.09
2023-02-11T22:02:10.253Z,0.08
2023-02-11T22:04:42.635Z,0.09
2023-02-11T22:07:15.028Z,0.08
2023-02-11T22:09:47.679Z,0.08
2023-02-11T22:12:20.206Z,0.08
2023-02-11T22:14:52.476Z,0.07
2023-02-11T22:17:24.952Z,0.06
2023-02-11T22:19:57.742Z,0.02
2023-02-11T22:22:30.289Z,-0.13
2023-02-11T22:25:03.458Z,-0.15
2023-02-11T22:27:35.700Z,-0.17
2023-02-11T22:30:10.103Z,-0.20
2023-02-11T22:32:42.653Z,-0.16
2023-02-11T22:35:14.980Z,-0.16
2023-02-11T22:37:47.199Z,-0.08
2023-02-11T22:40:19.741Z,-0.04
2023-02-11T22:42:52.057Z,0.00
2023-02-11T22:45:24.600Z,0.02
2023-02-11T22:47:56.922Z,-0.01
2023-02-11T22:50:29.346Z,-0.07
2023-02-11T22:53:01.635Z,-0.06
2023-02-11T22:55:37.191Z,-0.07
2023-02-11T22:58:09.581Z,-0.07
2023-02-11T23:00:43.473Z,-0.09
2023-02-11T23:03:15.819Z,-0.16
2023-02-11T23:05:48.113Z,-0.29
2023-02-11T23:08:20.550Z,-0.39
2023-02-11T23:10:52.963Z,-0.46
2023-02-11T23:13:25.159Z,-0.47
2023-02-11T23:15:57.630Z,-0.46
2023-02-11T23:18:30.324Z,-0.46
2023-02-11T23:21:11.310Z,-0.50
2023-02-11T23:23:45.094Z,-0.50
2023-02-11T23:26:19.619Z,-0.46
2023-02-11T23:28:52.152Z,-0.45
2023-02-11T23:31:26.231Z,-0.48
2023-02-11T23:33:59.003Z,-0.41
2023-02-11T23:36:31.508Z,-0.37
2023-02-11T23:39:04.168Z,-0.32
2023-02-11T23:41:36.497Z,-0.23
2023-02-11T23:44:08.881Z,-0.19
2023-02-11T23:46:41.358Z,-0.17
2023-02-11T23:49:15.625Z,-0.22
2023-02-11T23:51:48.070Z,-0.18
2023-02-11T23:54:20.467Z,-0.14
2023-02-11T23:56:52.786Z,-0.12
2023-02-11T23:59:25.091Z,-0.09
